sensor_id;sensor_type;location;lat;lon;timestamp;P1;durP1;ratioP1;P2;durP2;ratioP2
76837;SDS011;65797;47.352;8.164;2023-08-17T05:45:19;6.77;;;5.33;;
76837;SDS011;65797;47.352;8.164;2023-08-17T05:47:45;8.87;;;5.40;;
76837;SDS011;65797;47.352;8.164;2023-08-17T05:50:11;10.50;;;5.67;;
76837;SDS011;65797;47.352;8.164;2023-08-17T05:52:36;6.93;;;5.67;;
76837;SDS011;65797;47.352;8.164;2023-08-17T05:55:02;19.33;;;6.30;;
76837;SDS011;65797;47.352;8.164;2023-08-17T05:57:28;61.10;;;10.57;;
76837;SDS011;65797;47.352;8.164;2023-08-17T05:59:54;10.10;;;6.30;;
76837;SDS011;65797;47.352;8.164;2023-08-17T06:02:19;11.67;;;6.20;;
76837;SDS011;65797;47.352;8.164;2023-08-17T06:04:46;10.17;;;6.37;;
76837;SDS011;65797;47.352;8.164;2023-08-17T06:07:12;12.33;;;6.90;;
76837;SDS011;65797;47.352;8.164;2023-08-17T06:09:39;8.33;;;6.03;;
76837;SDS011;65797;47.352;8.164;2023-08-17T06:12:05;8.00;;;6.13;;
76837;SDS011;65797;47.352;8.164;2023-08-17T06:14:31;7.30;;;6.00;;
76837;SDS011;65797;47.352;8.164;2023-08-17T06:16:58;9.60;;;6.40;;
76837;SDS011;65797;47.352;8.164;2023-08-17T06:19:23;9.70;;;6.03;;
76837;SDS011;65797;47.352;8.164;2023-08-17T06:21:49;7.93;;;5.77;;
76837;SDS011;65797;47.352;8.164;2023-08-17T06:39:47;17.70;;;5.77;;
76837;SDS011;65797;47.352;8.164;2023-08-17T06:42:12;12.63;;;6.53;;
76837;SDS011;65797;47.352;8.164;2023-08-17T06:44:38;10.20;;;6.40;;
76837;SDS011;65797;47.352;8.164;2023-08-17T06:47:04;14.40;;;6.00;;
76837;SDS011;65797;47.352;8.164;2023-08-17T06:49:30;24.80;;;7.83;;
76837;SDS011;65797;47.352;8.164;2023-08-17T06:51:56;18.57;;;6.30;;
76837;SDS011;65797;47.352;8.164;2023-08-17T06:54:21;15.80;;;6.03;;
76837;SDS011;65797;47.352;8.164;2023-08-17T06:56:47;18.73;;;6.50;;
76837;SDS011;65797;47.352;8.164;2023-08-17T06:59:13;20.50;;;6.33;;
76837;SDS011;65797;47.352;8.164;2023-08-17T07:01:38;18.13;;;5.70;;
76837;SDS011;65797;47.352;8.164;2023-08-17T07:04:04;18.27;;;5.53;;
76837;SDS011;65797;47.352;8.164;2023-08-17T07:06:30;11.80;;;6.43;;
76837;SDS011;65797;47.352;8.164;2023-08-17T07:08:56;16.83;;;5.53;;
76837;SDS011;65797;47.352;8.164;2023-08-17T07:11:21;9.30;;;5.30;;
76837;SDS011;65797;47.352;8.164;2023-08-17T07:13:47;10.30;;;6.27;;
76837;SDS011;65797;47.352;8.164;2023-08-17T07:16:13;6.60;;;5.60;;
76837;SDS011;65797;47.352;8.164;2023-08-17T07:18:39;9.20;;;6.27;;
76837;SDS011;65797;47.352;8.164;2023-08-17T07:21:04;8.33;;;6.23;;
76837;SDS011;65797;47.352;8.164;2023-08-17T07:23:31;6.80;;;5.00;;
76837;SDS011;65797;47.352;8.164;2023-08-17T07:25:56;8.70;;;4.90;;
76837;SDS011;65797;47.352;8.164;2023-08-17T07:28:22;7.47;;;5.03;;
76837;SDS011;65797;47.352;8.164;2023-08-17T07:30:48;12.47;;;5.30;;
76837;SDS011;65797;47.352;8.164;2023-08-17T07:33:14;9.67;;;6.07;;
76837;SDS011;65797;47.352;8.164;2023-08-17T07:35:39;9.53;;;5.90;;
76837;SDS011;65797;47.352;8.164;2023-08-17T07:38:05;12.00;;;5.47;;
76837;SDS011;65797;47.352;8.164;2023-08-17T07:40:31;9.40;;;4.73;;
76837;SDS011;65797;47.352;8.164;2023-08-17T07:42:56;10.73;;;5.03;;
76837;SDS011;65797;47.352;8.164;2023-08-17T07:45:22;5.80;;;4.63;;
76837;SDS011;65797;47.352;8.164;2023-08-17T07:47:48;6.33;;;4.30;;
76837;SDS011;65797;47.352;8.164;2023-08-17T07:50:13;11.43;;;4.80;;
76837;SDS011;65797;47.352;8.164;2023-08-17T07:52:39;8.10;;;4.70;;
76837;SDS011;65797;47.352;8.164;2023-08-17T07:55:05;9.87;;;4.73;;
76837;SDS011;65797;47.352;8.164;2023-08-17T07:57:31;4.80;;;4.30;;
76837;SDS011;65797;47.352;8.164;2023-08-17T07:59:56;7.57;;;4.83;;
76837;SDS011;65797;47.352;8.164;2023-08-17T08:02:22;7.70;;;5.43;;
76837;SDS011;65797;47.352;8.164;2023-08-17T08:04:48;7.00;;;4.53;;
76837;SDS011;65797;47.352;8.164;2023-08-17T08:07:13;11.33;;;5.20;;
76837;SDS011;65797;47.352;8.164;2023-08-17T08:09:39;9.20;;;5.20;;
76837;SDS011;65797;47.352;8.164;2023-08-17T08:12:05;15.50;;;5.60;;
76837;SDS011;65797;47.352;8.164;2023-08-17T10:03:58;7.80;;;5.73;;
76837;SDS011;65797;47.352;8.164;2023-08-17T10:06:25;8.03;;;5.47;;
76837;SDS011;65797;47.352;8.164;2023-08-17T10:08:52;9.13;;;4.63;;
76837;SDS011;65797;47.352;8.164;2023-08-17T10:11:21;8.80;;;5.23;;
76837;SDS011;65797;47.352;8.164;2023-08-17T12:07:11;6.73;;;3.73;;
76837;SDS011;65797;47.352;8.164;2023-08-17T12:12:13;6.40;;;4.00;;
76837;SDS011;65797;47.352;8.164;2023-08-17T12:14:42;5.80;;;4.40;;
76837;SDS011;65797;47.352;8.164;2023-08-17T12:17:13;4.07;;;3.67;;
76837;SDS011;65797;47.352;8.164;2023-08-17T12:19:43;3.67;;;3.20;;
76837;SDS011;65797;47.352;8.164;2023-08-17T12:22:09;10.47;;;4.17;;
76837;SDS011;65797;47.352;8.164;2023-08-17T12:24:37;6.90;;;3.60;;
76837;SDS011;65797;47.352;8.164;2023-08-17T12:27:04;6.93;;;3.63;;
76837;SDS011;65797;47.352;8.164;2023-08-17T12:34:44;3.67;;;3.20;;
76837;SDS011;65797;47.352;8.164;2023-08-17T12:37:10;5.50;;;4.00;;
76837;SDS011;65797;47.352;8.164;2023-08-17T12:52:33;5.97;;;3.97;;
76837;SDS011;65797;47.352;8.164;2023-08-17T14:23:59;7.70;;;3.67;;
76837;SDS011;65797;47.352;8.164;2023-08-17T14:26:29;3.77;;;3.33;;
76837;SDS011;65797;47.352;8.164;2023-08-17T14:34:05;5.73;;;4.10;;
76837;SDS011;65797;47.352;8.164;2023-08-17T14:36:31;7.20;;;3.53;;
76837;SDS011;65797;47.352;8.164;2023-08-17T14:38:57;4.70;;;3.77;;
76837;SDS011;65797;47.352;8.164;2023-08-17T14:41:22;6.60;;;3.90;;
76837;SDS011;65797;47.352;8.164;2023-08-17T14:43:48;6.30;;;3.43;;
76837;SDS011;65797;47.352;8.164;2023-08-17T14:46:14;3.23;;;3.03;;
76837;SDS011;65797;47.352;8.164;2023-08-17T14:48:40;5.10;;;3.40;;
76837;SDS011;65797;47.352;8.164;2023-08-17T14:51:06;4.10;;;3.10;;
76837;SDS011;65797;47.352;8.164;2023-08-17T14:53:32;4.43;;;3.43;;
76837;SDS011;65797;47.352;8.164;2023-08-17T14:55:58;6.30;;;3.40;;
76837;SDS011;65797;47.352;8.164;2023-08-17T14:58:24;3.83;;;2.90;;
76837;SDS011;65797;47.352;8.164;2023-08-17T15:00:49;10.93;;;3.70;;
76837;SDS011;65797;47.352;8.164;2023-08-17T15:03:15;7.00;;;3.43;;
76837;SDS011;65797;47.352;8.164;2023-08-17T15:05:41;6.67;;;3.83;;
76837;SDS011;65797;47.352;8.164;2023-08-17T15:08:06;3.87;;;3.40;;
76837;SDS011;65797;47.352;8.164;2023-08-17T15:10:32;5.67;;;3.60;;
76837;SDS011;65797;47.352;8.164;2023-08-17T15:12:59;3.60;;;3.20;;
76837;SDS011;65797;47.352;8.164;2023-08-17T15:15:25;6.80;;;3.50;;
76837;SDS011;65797;47.352;8.164;2023-08-17T15:17:50;7.53;;;3.20;;
76837;SDS011;65797;47.352;8.164;2023-08-17T15:20:16;6.00;;;3.47;;
76837;SDS011;65797;47.352;8.164;2023-08-17T15:22:42;8.93;;;3.20;;
76837;SDS011;65797;47.352;8.164;2023-08-17T15:25:07;7.90;;;3.43;;
76837;SDS011;65797;47.352;8.164;2023-08-17T15:27:33;5.93;;;3.33;;
76837;SDS011;65797;47.352;8.164;2023-08-17T15:29:59;4.17;;;2.80;;
76837;SDS011;65797;47.352;8.164;2023-08-17T15:32:25;5.13;;;3.30;;
76837;SDS011;65797;47.352;8.164;2023-08-17T15:34:50;5.20;;;3.00;;
76837;SDS011;65797;47.352;8.164;2023-08-17T15:37:16;2.60;;;2.40;;
76837;SDS011;65797;47.352;8.164;2023-08-17T15:39:42;5.70;;;2.93;;
76837;SDS011;65797;47.352;8.164;2023-08-17T15:42:07;4.20;;;2.97;;
76837;SDS011;65797;47.352;8.164;2023-08-17T15:44:33;7.47;;;2.67;;
76837;SDS011;65797;47.352;8.164;2023-08-17T15:46:59;4.40;;;2.50;;
76837;SDS011;65797;47.352;8.164;2023-08-17T15:49:25;6.80;;;3.00;;
76837;SDS011;65797;47.352;8.164;2023-08-17T15:51:51;5.47;;;3.13;;
76837;SDS011;65797;47.352;8.164;2023-08-17T15:54:16;6.37;;;2.87;;
76837;SDS011;65797;47.352;8.164;2023-08-17T15:56:42;3.70;;;2.87;;
76837;SDS011;65797;47.352;8.164;2023-08-17T15:59:08;7.77;;;2.90;;
76837;SDS011;65797;47.352;8.164;2023-08-17T16:01:34;6.00;;;3.03;;
76837;SDS011;65797;47.352;8.164;2023-08-17T16:04:00;13.20;;;3.30;;
76837;SDS011;65797;47.352;8.164;2023-08-17T16:06:25;12.03;;;2.47;;
76837;SDS011;65797;47.352;8.164;2023-08-17T16:08:51;6.53;;;2.50;;
76837;SDS011;65797;47.352;8.164;2023-08-17T16:11:17;5.10;;;2.47;;
76837;SDS011;65797;47.352;8.164;2023-08-17T16:13:43;5.63;;;2.30;;
76837;SDS011;65797;47.352;8.164;2023-08-17T16:16:09;9.30;;;3.00;;
76837;SDS011;65797;47.352;8.164;2023-08-17T16:18:34;16.77;;;3.33;;
76837;SDS011;65797;47.352;8.164;2023-08-17T16:21:00;6.50;;;2.43;;
76837;SDS011;65797;47.352;8.164;2023-08-17T16:23:26;5.13;;;2.60;;
76837;SDS011;65797;47.352;8.164;2023-08-17T16:25:52;3.67;;;2.10;;
76837;SDS011;65797;47.352;8.164;2023-08-17T16:28:17;6.57;;;2.37;;
76837;SDS011;65797;47.352;8.164;2023-08-17T16:30:43;8.10;;;2.17;;
76837;SDS011;65797;47.352;8.164;2023-08-17T16:33:09;4.10;;;2.43;;
76837;SDS011;65797;47.352;8.164;2023-08-17T16:35:35;8.97;;;3.03;;
76837;SDS011;65797;47.352;8.164;2023-08-17T16:38:05;6.23;;;2.83;;
76837;SDS011;65797;47.352;8.164;2023-08-17T16:40:30;5.60;;;2.07;;
76837;SDS011;65797;47.352;8.164;2023-08-17T16:45:32;12.70;;;2.60;;
76837;SDS011;65797;47.352;8.164;2023-08-17T16:47:57;4.70;;;1.87;;
76837;SDS011;65797;47.352;8.164;2023-08-17T16:50:23;9.53;;;2.87;;
76837;SDS011;65797;47.352;8.164;2023-08-17T16:52:52;5.90;;;2.13;;
76837;SDS011;65797;47.352;8.164;2023-08-17T16:55:18;6.40;;;2.30;;
76837;SDS011;65797;47.352;8.164;2023-08-17T17:00:20;5.67;;;2.50;;
76837;SDS011;65797;47.352;8.164;2023-08-17T17:02:46;3.87;;;2.10;;
76837;SDS011;65797;47.352;8.164;2023-08-17T17:05:11;7.07;;;1.73;;
76837;SDS011;65797;47.352;8.164;2023-08-17T17:07:38;3.67;;;2.60;;
76837;SDS011;65797;47.352;8.164;2023-08-17T17:10:04;7.00;;;2.53;;
76837;SDS011;65797;47.352;8.164;2023-08-17T17:12:30;8.13;;;2.20;;
76837;SDS011;65797;47.352;8.164;2023-08-17T17:14:56;4.53;;;2.30;;
76837;SDS011;65797;47.352;8.164;2023-08-17T17:17:23;7.00;;;2.23;;
76837;SDS011;65797;47.352;8.164;2023-08-17T17:19:49;6.37;;;2.53;;
76837;SDS011;65797;47.352;8.164;2023-08-17T17:22:15;13.53;;;2.27;;
76837;SDS011;65797;47.352;8.164;2023-08-17T17:24:41;14.80;;;2.70;;
76837;SDS011;65797;47.352;8.164;2023-08-17T17:27:07;4.40;;;2.10;;
76837;SDS011;65797;47.352;8.164;2023-08-17T17:29:33;7.43;;;2.90;;
76837;SDS011;65797;47.352;8.164;2023-08-17T17:31:58;3.33;;;2.30;;
76837;SDS011;65797;47.352;8.164;2023-08-17T17:34:24;7.47;;;2.67;;
76837;SDS011;65797;47.352;8.164;2023-08-17T17:36:50;3.50;;;2.67;;
76837;SDS011;65797;47.352;8.164;2023-08-17T17:39:16;2.43;;;2.20;;
76837;SDS011;65797;47.352;8.164;2023-08-17T17:41:41;10.97;;;2.80;;
76837;SDS011;65797;47.352;8.164;2023-08-17T17:44:07;4.57;;;2.40;;
76837;SDS011;65797;47.352;8.164;2023-08-17T17:46:33;6.87;;;2.80;;
76837;SDS011;65797;47.352;8.164;2023-08-17T17:48:59;7.80;;;2.33;;
76837;SDS011;65797;47.352;8.164;2023-08-17T17:51:25;6.73;;;2.33;;
76837;SDS011;65797;47.352;8.164;2023-08-17T17:53:51;8.37;;;2.90;;
76837;SDS011;65797;47.352;8.164;2023-08-17T17:56:17;5.00;;;2.60;;
76837;SDS011;65797;47.352;8.164;2023-08-17T17:58:42;5.33;;;2.50;;
76837;SDS011;65797;47.352;8.164;2023-08-17T18:01:08;6.00;;;2.60;;
76837;SDS011;65797;47.352;8.164;2023-08-17T18:03:34;4.93;;;2.37;;
76837;SDS011;65797;47.352;8.164;2023-08-17T18:06:00;6.27;;;1.97;;
76837;SDS011;65797;47.352;8.164;2023-08-17T18:08:26;8.47;;;2.60;;
76837;SDS011;65797;47.352;8.164;2023-08-17T18:10:51;6.43;;;2.50;;
76837;SDS011;65797;47.352;8.164;2023-08-17T18:13:18;10.73;;;2.67;;
76837;SDS011;65797;47.352;8.164;2023-08-17T18:15:45;5.50;;;2.70;;
76837;SDS011;65797;47.352;8.164;2023-08-17T18:20:47;4.87;;;2.90;;
76837;SDS011;65797;47.352;8.164;2023-08-17T18:23:13;4.97;;;2.13;;
76837;SDS011;65797;47.352;8.164;2023-08-17T18:25:39;3.97;;;2.40;;
76837;SDS011;65797;47.352;8.164;2023-08-17T18:28:05;5.97;;;2.80;;
76837;SDS011;65797;47.352;8.164;2023-08-17T18:30:32;4.57;;;2.47;;
76837;SDS011;65797;47.352;8.164;2023-08-17T18:32:58;2.70;;;2.40;;
76837;SDS011;65797;47.352;8.164;2023-08-17T18:35:24;3.93;;;2.47;;
76837;SDS011;65797;47.352;8.164;2023-08-17T18:37:49;5.43;;;2.43;;
76837;SDS011;65797;47.352;8.164;2023-08-17T18:40:15;4.23;;;1.83;;
76837;SDS011;65797;47.352;8.164;2023-08-17T18:42:44;4.60;;;2.07;;
76837;SDS011;65797;47.352;8.164;2023-08-17T18:45:13;11.60;;;2.90;;
76837;SDS011;65797;47.352;8.164;2023-08-17T18:47:42;3.80;;;2.40;;
76837;SDS011;65797;47.352;8.164;2023-08-17T18:50:11;5.10;;;2.57;;
76837;SDS011;65797;47.352;8.164;2023-08-17T18:52:37;6.23;;;2.20;;
76837;SDS011;65797;47.352;8.164;2023-08-17T18:55:03;7.70;;;1.90;;
76837;SDS011;65797;47.352;8.164;2023-08-17T18:57:31;6.20;;;2.83;;
76837;SDS011;65797;47.352;8.164;2023-08-17T18:59:57;14.33;;;2.63;;
76837;SDS011;65797;47.352;8.164;2023-08-17T19:02:22;3.13;;;2.10;;
76837;SDS011;65797;47.352;8.164;2023-08-17T19:04:48;4.80;;;2.37;;
76837;SDS011;65797;47.352;8.164;2023-08-17T19:07:14;5.60;;;2.10;;
76837;SDS011;65797;47.352;8.164;2023-08-17T19:09:40;7.73;;;2.50;;
76837;SDS011;65797;47.352;8.164;2023-08-17T19:12:06;6.60;;;2.23;;
76837;SDS011;65797;47.352;8.164;2023-08-17T19:14:32;4.30;;;2.53;;
76837;SDS011;65797;47.352;8.164;2023-08-17T19:16:58;7.83;;;2.30;;
76837;SDS011;65797;47.352;8.164;2023-08-17T19:19:24;6.93;;;2.40;;
76837;SDS011;65797;47.352;8.164;2023-08-17T19:21:50;7.90;;;2.67;;
76837;SDS011;65797;47.352;8.164;2023-08-17T19:24:15;4.17;;;2.40;;
76837;SDS011;65797;47.352;8.164;2023-08-17T19:26:41;4.13;;;2.50;;
76837;SDS011;65797;47.352;8.164;2023-08-17T19:29:07;2.63;;;2.10;;
76837;SDS011;65797;47.352;8.164;2023-08-17T19:31:34;8.00;;;2.70;;
76837;SDS011;65797;47.352;8.164;2023-08-17T19:34:01;5.63;;;2.63;;
76837;SDS011;65797;47.352;8.164;2023-08-17T19:36:28;4.97;;;2.37;;
76837;SDS011;65797;47.352;8.164;2023-08-17T19:38:54;5.10;;;2.67;;
76837;SDS011;65797;47.352;8.164;2023-08-17T19:41:20;4.63;;;2.43;;
76837;SDS011;65797;47.352;8.164;2023-08-17T19:43:45;9.07;;;2.30;;
76837;SDS011;65797;47.352;8.164;2023-08-17T19:46:11;5.93;;;2.20;;
76837;SDS011;65797;47.352;8.164;2023-08-17T19:48:37;6.20;;;2.80;;
76837;SDS011;65797;47.352;8.164;2023-08-17T19:51:03;3.73;;;2.27;;
76837;SDS011;65797;47.352;8.164;2023-08-17T19:53:29;6.20;;;2.70;;
76837;SDS011;65797;47.352;8.164;2023-08-17T19:55:57;4.63;;;2.83;;
76837;SDS011;65797;47.352;8.164;2023-08-17T19:58:24;4.70;;;2.47;;
76837;SDS011;65797;47.352;8.164;2023-08-17T20:00:50;5.07;;;2.20;;
76837;SDS011;65797;47.352;8.164;2023-08-17T20:03:20;5.83;;;2.63;;
76837;SDS011;65797;47.352;8.164;2023-08-17T20:05:48;7.90;;;2.60;;
76837;SDS011;65797;47.352;8.164;2023-08-17T20:08:14;8.50;;;3.07;;
76837;SDS011;65797;47.352;8.164;2023-08-17T20:10:41;3.23;;;2.10;;
76837;SDS011;65797;47.352;8.164;2023-08-17T20:13:07;3.37;;;2.40;;
76837;SDS011;65797;47.352;8.164;2023-08-17T20:15:33;9.53;;;2.30;;
76837;SDS011;65797;47.352;8.164;2023-08-17T20:17:58;3.17;;;2.10;;
76837;SDS011;65797;47.352;8.164;2023-08-17T20:20:25;4.97;;;2.37;;
76837;SDS011;65797;47.352;8.164;2023-08-17T20:22:52;5.90;;;2.33;;
76837;SDS011;65797;47.352;8.164;2023-08-17T20:25:18;3.07;;;2.03;;
76837;SDS011;65797;47.352;8.164;2023-08-17T20:27:44;7.80;;;2.33;;
76837;SDS011;65797;47.352;8.164;2023-08-17T20:30:10;6.97;;;2.60;;
76837;SDS011;65797;47.352;8.164;2023-08-17T20:32:37;5.63;;;2.60;;
76837;SDS011;65797;47.352;8.164;2023-08-17T20:35:03;4.37;;;2.40;;
76837;SDS011;65797;47.352;8.164;2023-08-17T20:37:29;5.20;;;2.53;;
76837;SDS011;65797;47.352;8.164;2023-08-17T20:39:55;6.07;;;2.53;;
76837;SDS011;65797;47.352;8.164;2023-08-17T20:42:21;7.90;;;2.33;;
76837;SDS011;65797;47.352;8.164;2023-08-17T20:44:47;11.37;;;2.90;;
76837;SDS011;65797;47.352;8.164;2023-08-17T20:47:12;8.00;;;3.00;;
76837;SDS011;65797;47.352;8.164;2023-08-17T20:49:39;6.20;;;2.67;;
76837;SDS011;65797;47.352;8.164;2023-08-17T20:52:10;8.70;;;2.90;;
76837;SDS011;65797;47.352;8.164;2023-08-17T20:54:36;4.93;;;2.57;;
76837;SDS011;65797;47.352;8.164;2023-08-17T20:57:02;14.80;;;2.63;;
76837;SDS011;65797;47.352;8.164;2023-08-17T20:59:28;7.33;;;1.90;;
76837;SDS011;65797;47.352;8.164;2023-08-17T21:01:54;6.23;;;2.80;;
76837;SDS011;65797;47.352;8.164;2023-08-17T21:04:20;3.67;;;2.47;;
76837;SDS011;65797;47.352;8.164;2023-08-17T21:06:45;2.70;;;2.00;;
76837;SDS011;65797;47.352;8.164;2023-08-17T21:09:11;2.83;;;2.27;;
76837;SDS011;65797;47.352;8.164;2023-08-17T21:11:37;4.00;;;1.90;;
76837;SDS011;65797;47.352;8.164;2023-08-17T21:14:03;3.27;;;2.03;;
76837;SDS011;65797;47.352;8.164;2023-08-17T21:16:29;2.53;;;2.00;;
76837;SDS011;65797;47.352;8.164;2023-08-17T21:18:55;3.10;;;2.07;;
76837;SDS011;65797;47.352;8.164;2023-08-17T22:28:52;6.90;;;2.43;;
76837;SDS011;65797;47.352;8.164;2023-08-17T22:31:18;3.40;;;2.10;;
76837;SDS011;65797;47.352;8.164;2023-08-17T22:33:44;3.20;;;2.53;;
76837;SDS011;65797;47.352;8.164;2023-08-17T22:36:11;3.40;;;2.10;;
76837;SDS011;65797;47.352;8.164;2023-08-17T22:38:37;7.40;;;2.60;;
76837;SDS011;65797;47.352;8.164;2023-08-17T22:41:03;3.60;;;2.60;;
76837;SDS011;65797;47.352;8.164;2023-08-17T22:43:29;6.27;;;3.17;;
76837;SDS011;65797;47.352;8.164;2023-08-17T22:45:54;6.73;;;2.77;;
76837;SDS011;65797;47.352;8.164;2023-08-17T22:48:22;6.47;;;3.27;;
76837;SDS011;65797;47.352;8.164;2023-08-17T22:50:47;4.83;;;2.90;;
76837;SDS011;65797;47.352;8.164;2023-08-17T22:53:13;5.40;;;2.70;;
76837;SDS011;65797;47.352;8.164;2023-08-17T22:55:39;9.97;;;2.90;;
76837;SDS011;65797;47.352;8.164;2023-08-17T22:58:05;3.00;;;2.63;;
76837;SDS011;65797;47.352;8.164;2023-08-17T23:00:30;5.40;;;2.83;;
76837;SDS011;65797;47.352;8.164;2023-08-17T23:02:56;5.27;;;3.20;;
76837;SDS011;65797;47.352;8.164;2023-08-17T23:05:22;3.57;;;2.30;;
76837;SDS011;65797;47.352;8.164;2023-08-17T23:07:48;6.63;;;2.60;;
76837;SDS011;65797;47.352;8.164;2023-08-17T23:10:14;4.00;;;2.70;;
76837;SDS011;65797;47.352;8.164;2023-08-17T23:12:40;6.20;;;2.40;;
76837;SDS011;65797;47.352;8.164;2023-08-17T23:15:06;4.30;;;2.30;;
76837;SDS011;65797;47.352;8.164;2023-08-17T23:17:32;7.00;;;2.57;;
76837;SDS011;65797;47.352;8.164;2023-08-17T23:19:57;2.83;;;2.50;;
76837;SDS011;65797;47.352;8.164;2023-08-17T23:22:23;4.40;;;2.57;;
76837;SDS011;65797;47.352;8.164;2023-08-17T23:24:49;6.20;;;2.23;;
76837;SDS011;65797;47.352;8.164;2023-08-17T23:27:15;4.30;;;2.60;;
76837;SDS011;65797;47.352;8.164;2023-08-17T23:29:40;9.90;;;2.53;;
76837;SDS011;65797;47.352;8.164;2023-08-17T23:32:06;9.63;;;3.03;;
76837;SDS011;65797;47.352;8.164;2023-08-17T23:34:33;3.77;;;3.20;;
76837;SDS011;65797;47.352;8.164;2023-08-17T23:36:59;4.90;;;2.43;;
76837;SDS011;65797;47.352;8.164;2023-08-17T23:39:26;9.00;;;2.47;;
76837;SDS011;65797;47.352;8.164;2023-08-17T23:41:52;6.07;;;2.67;;
76837;SDS011;65797;47.352;8.164;2023-08-17T23:44:18;3.00;;;2.10;;
76837;SDS011;65797;47.352;8.164;2023-08-17T23:46:44;4.30;;;2.77;;
76837;SDS011;65797;47.352;8.164;2023-08-17T23:49:11;4.40;;;2.57;;
76837;SDS011;65797;47.352;8.164;2023-08-17T23:54:15;8.83;;;2.93;;
76837;SDS011;65797;47.352;8.164;2023-08-17T23:56:54;5.50;;;2.60;;
76837;SDS011;65797;47.352;8.164;2023-08-17T23:59:20;5.43;;;2.60;;
